Time;durP1;ratioP1;P1;durP2;ratioP2;P2;SDS_P1;SDS_P2;PMS_P1;PMS_P2;Temp;Humidity;BMP_temperature;BMP_pressure;BME280_temperature;BME280_humidity;BME280_pressure;Samples;Min_cycle;Max_cycle;Signal;HPM_P1;HPM_P2
2021/08/21 00:05:14;;;;;;;5.73;4.40;;;11.80;99.90;;;12.55;100.00;95276.00;2446322;55;34294;-57
2021/08/21 00:08:01;;;;;;;4.23;3.77;;;11.80;99.90;;;12.39;100.00;95295.00;2189769;56;26714;-57
2021/08/21 00:10:47;;;;;;;6.80;4.20;;;11.80;99.90;;;12.36;100.00;95301.00;2392028;55;26687;-57
2021/08/21 00:13:34;;;;;;;7.10;4.00;;;11.80;99.90;;;12.36;100.00;95295.00;2176245;56;26684;-57
2021/08/21 00:16:20;;;;;;;4.83;4.00;;;11.90;99.90;;;12.51;100.00;95296.00;2427281;55;27228;-57
2021/08/21 00:19:07;;;;;;;4.10;3.47;;;12.10;99.90;;;12.61;100.00;95289.00;2149411;56;26208;-57
2021/08/21 00:21:53;;;;;;;6.87;4.10;;;12.00;99.90;;;12.63;100.00;95291.00;2161838;57;26789;-57
2021/08/21 00:24:40;;;;;;;5.40;4.20;;;12.00;99.90;;;12.58;100.00;95291.00;2384804;56;26770;-57
2021/08/21 00:30:24;;;;;;;5.20;3.90;;;11.90;99.90;;;12.54;100.00;95277.00;2496617;53;33893;-56
2021/08/21 00:33:10;;;;;;;4.13;3.50;;;11.70;99.90;;;12.27;100.00;95287.00;2250267;55;26657;-57
2021/08/21 00:35:57;;;;;;;4.80;3.60;;;11.60;99.90;;;12.23;100.00;95285.00;2270418;55;26784;-57
2021/08/21 00:41:40;;;;;;;7.97;4.10;;;11.60;99.90;;;12.39;100.00;95269.00;2469954;54;34543;-56
2021/08/21 00:44:26;;;;;;;4.57;3.80;;;11.60;99.90;;;12.24;100.00;95276.00;2462522;54;26882;-57
2021/08/21 00:47:16;;;;;;;6.97;3.83;;;11.60;99.90;;;12.26;100.00;95274.00;2220789;54;27846;-56
2021/08/21 00:50:03;;;;;;;6.53;3.63;;;11.50;99.90;;;12.11;100.00;95284.00;2442628;55;26876;-56
2021/08/21 00:52:49;;;;;;;4.30;3.90;;;11.50;99.90;;;12.10;100.00;95293.00;2219491;55;26538;-57
2021/08/21 00:55:36;;;;;;;4.53;3.73;;;11.50;99.90;;;12.10;100.00;95282.00;2442255;54;27268;-57
2021/08/21 00:58:22;;;;;;;4.07;3.67;;;11.50;99.90;;;12.07;100.00;95288.00;2217926;55;26669;-57
2021/08/21 01:01:09;;;;;;;4.23;3.40;;;11.30;99.90;;;12.10;100.00;95282.00;2442821;55;27286;-57
2021/08/21 01:03:56;;;;;;;4.47;3.63;;;11.40;99.90;;;12.11;100.00;95281.00;2218739;55;27524;-57
2021/08/21 01:06:42;;;;;;;6.37;3.90;;;11.50;99.90;;;12.12;100.00;95280.00;2442551;54;26828;-56
2021/08/21 01:09:28;;;;;;;5.87;3.20;;;11.40;99.90;;;11.98;100.00;95278.00;2204436;55;26766;-57
2021/08/21 01:12:18;;;;;;;5.20;3.60;;;11.30;99.90;;;11.89;100.00;95277.00;2192889;55;26718;-57
2021/08/21 01:15:07;;;;;;;4.40;3.43;;;11.30;99.90;;;11.93;100.00;95284.00;2192299;56;26847;-56
2021/08/21 01:17:55;;;;;;;4.17;3.33;;;11.30;99.90;;;11.91;100.00;95272.00;2412673;55;26781;-56
2021/08/21 01:20:43;;;;;;;4.90;3.40;;;11.30;99.90;;;11.91;100.00;95274.00;2193952;55;26617;-57
2021/08/21 01:23:29;;;;;;;5.63;3.60;;;11.30;99.90;;;11.87;100.00;95273.00;2193415;55;27212;-57
2021/08/21 01:26:16;;;;;;;4.17;3.70;;;11.30;99.90;;;11.92;100.00;95271.00;2412980;55;26749;-57
2021/08/21 01:29:04;;;;;;;3.90;3.50;;;11.40;99.90;;;11.99;100.00;95274.00;2193289;55;26668;-57
2021/08/21 01:31:52;;;;;;;5.70;3.70;;;11.30;99.90;;;11.91;100.00;95266.00;2413433;55;27041;-56
2021/08/21 01:34:38;;;;;;;3.83;3.23;;;11.30;99.90;;;11.89;100.00;95266.00;2193649;55;26845;-56
2021/08/21 01:37:27;;;;;;;6.47;3.30;;;11.20;99.90;;;11.88;100.00;95269.00;2413083;55;26797;-56
2021/08/21 01:40:14;;;;;;;4.30;3.57;;;11.20;99.90;;;11.79;100.00;95263.00;2193650;55;26130;-57
2021/08/21 01:43:01;;;;;;;4.17;3.57;;;11.20;99.90;;;11.85;100.00;95265.00;2412704;55;27586;-56
2021/08/21 01:45:48;;;;;;;4.30;3.63;;;11.20;99.90;;;11.78;100.00;95267.00;2194051;55;26686;-57
2021/08/21 01:48:34;;;;;;;4.60;3.50;;;11.10;99.90;;;11.80;100.00;95268.00;2411822;55;26771;-57
2021/08/21 01:51:21;;;;;;;4.33;3.93;;;11.00;99.90;;;11.66;100.00;95272.00;2193209;55;27271;-56
2021/08/21 01:54:07;;;;;;;5.47;3.97;;;11.00;99.90;;;11.63;100.00;95269.00;2411734;55;26665;-56
2021/08/21 01:59:54;;;;;;;4.33;3.73;;;10.90;99.90;;;11.57;100.00;95262.00;2358563;56;34879;-59
2021/08/21 02:02:41;;;;;;;4.60;3.27;;;10.90;99.90;;;11.37;100.00;95277.00;2114887;57;26821;-56
2021/08/21 02:05:27;;;;;;;4.63;3.90;;;10.80;99.90;;;11.30;100.00;95273.00;2312501;58;26646;-56
2021/08/21 02:08:14;;;;;;;4.83;3.90;;;10.70;99.90;;;11.31;100.00;95277.00;2115309;58;26721;-56
2021/08/21 02:11:00;;;;;;;4.70;3.90;;;10.70;99.90;;;11.23;100.00;95278.00;2326678;57;26608;-57
2021/08/21 02:16:47;;;;;;;3.87;3.47;;;10.70;99.90;;;11.41;100.00;95275.00;2433062;54;33630;-56
2021/08/21 02:19:33;;;;;;;5.23;3.80;;;10.60;99.90;;;11.19;100.00;95287.00;2220811;55;26731;-57
2021/08/21 02:22:19;;;;;;;4.07;3.67;;;10.60;99.90;;;11.11;100.00;95289.00;2432188;55;26142;-57
2021/08/21 02:25:09;;;;;;;5.07;4.13;;;10.60;99.90;;;11.23;100.00;95291.00;2208864;55;27003;-57
2021/08/21 02:27:57;;;;;;;5.67;3.80;;;10.60;99.90;;;11.25;100.00;95283.00;2208719;55;26713;-56
2021/08/21 02:33:42;;;;;;;6.07;4.00;;;10.60;99.90;;;11.32;100.00;95274.00;2125950;57;33946;-55
2021/08/21 02:36:30;;;;;;;4.87;3.70;;;10.60;99.90;;;11.23;100.00;95280.00;2133180;58;26669;-55
2021/08/21 02:39:17;;;;;;;4.00;3.60;;;10.60;99.90;;;11.23;100.00;95283.00;2314250;58;27333;-56
2021/08/21 02:42:04;;;;;;;4.93;3.80;;;10.60;99.90;;;11.26;100.00;95280.00;2109697;59;26717;-56
2021/08/21 02:44:50;;;;;;;5.90;3.90;;;10.60;99.90;;;11.13;100.00;95280.00;2106008;57;26651;-55
2021/08/21 02:47:37;;;;;;;4.20;3.63;;;10.50;99.90;;;11.10;100.00;95280.00;2315886;57;26215;-56
2021/08/21 02:50:24;;;;;;;4.03;3.63;;;10.40;99.90;;;10.94;100.00;95280.00;2113704;58;27380;-55
2021/08/21 02:53:10;;;;;;;6.03;3.70;;;10.40;99.90;;;10.90;100.00;95279.00;2315973;58;26680;-56
2021/08/21 02:55:57;;;;;;;5.73;4.00;;;10.40;99.90;;;10.88;100.00;95276.00;2129711;57;27470;-55
2021/08/21 03:01:41;;;;;;;4.30;3.90;;;10.30;99.90;;;10.98;100.00;95266.00;2407687;55;34754;-55
2021/08/21 03:04:27;;;;;;;5.00;4.47;;;10.30;99.90;;;10.80;100.00;95274.00;2192303;55;27277;-55
2021/08/21 03:07:13;;;;;;;4.27;3.87;;;10.30;99.90;;;10.94;100.00;95272.00;2434598;55;27298;-56
2021/08/21 03:10:00;;;;;;;8.57;5.10;;;10.30;99.90;;;10.91;100.00;95275.00;2212449;55;26216;-55
2021/08/21 03:12:46;;;;;;;5.83;5.07;;;10.30;99.90;;;10.76;100.00;95279.00;2434978;55;26791;-55
2021/08/21 03:15:33;;;;;;;6.53;4.63;;;10.30;99.90;;;10.84;100.00;95277.00;2212709;56;26257;-55
2021/08/21 03:18:19;;;;;;;6.20;4.80;;;10.30;99.90;;;10.90;100.00;95276.00;2212189;56;26881;-55
2021/08/21 03:21:06;;;;;;;5.20;4.70;;;10.20;99.90;;;10.67;100.00;95274.00;2434200;55;26582;-56
2021/08/21 03:23:52;;;;;;;7.50;4.23;;;10.20;99.90;;;10.65;100.00;95273.00;2211479;56;26805;-55
2021/08/21 03:26:38;;;;;;;4.93;4.30;;;10.30;99.90;;;10.75;100.00;95275.00;2434519;55;26673;-55
2021/08/21 03:29:25;;;;;;;5.10;3.93;;;10.20;99.90;;;10.82;100.00;95276.00;2211829;56;26177;-55
2021/08/21 03:32:15;;;;;;;5.03;4.53;;;10.30;99.90;;;10.88;100.00;95274.00;2432884;55;26153;-55
2021/08/21 03:35:03;;;;;;;4.93;4.30;;;10.30;99.90;;;10.95;100.00;95274.00;2210391;55;26797;-55
2021/08/21 03:37:49;;;;;;;5.40;3.90;;;10.40;99.90;;;10.96;100.00;95275.00;2434231;55;26725;-56
2021/08/21 03:40:36;;;;;;;4.47;4.07;;;10.30;99.90;;;10.84;100.00;95275.00;2211801;56;27088;-55
2021/08/21 03:43:22;;;;;;;4.40;4.00;;;10.30;99.90;;;10.83;100.00;95275.00;2433694;55;26672;-56
2021/08/21 03:46:09;;;;;;;5.40;4.20;;;10.20;99.90;;;10.77;100.00;95278.00;2212128;56;27278;-55
2021/08/21 03:48:55;;;;;;;4.63;4.23;;;10.20;99.90;;;10.82;100.00;95279.00;2225610;55;26849;-55
2021/08/21 03:51:41;;;;;;;4.77;4.27;;;10.20;99.90;;;10.74;100.00;95284.00;2466339;55;26639;-54
2021/08/21 03:54:28;;;;;;;4.90;4.27;;;10.10;99.90;;;10.49;100.00;95281.00;2237454;55;27335;-55
2021/08/21 03:57:14;;;;;;;5.03;4.40;;;10.10;99.90;;;10.43;100.00;95287.00;2238193;55;26827;-56
2021/08/21 04:00:01;;;;;;;5.63;4.80;;;10.00;99.90;;;10.43;100.00;95285.00;2238044;55;27265;-56
2021/08/21 04:02:47;;;;;;;4.77;4.27;;;10.00;99.90;;;10.50;100.00;95283.00;2237544;55;26829;-56
2021/08/21 04:08:31;;;;;;;4.63;4.23;;;10.00;99.90;;;10.67;100.00;95271.00;2386364;55;34318;-55
2021/08/21 04:11:17;;;;;;;4.93;4.40;;;10.00;99.90;;;10.47;100.00;95283.00;2161583;57;26650;-55
2021/08/21 04:14:04;;;;;;;4.80;4.30;;;10.00;99.90;;;10.53;100.00;95292.00;2373959;56;26205;-56
2021/08/21 04:19:47;;;;;;;4.53;4.00;;;10.00;99.90;;;10.69;100.00;95272.00;2446886;54;34857;-55
2021/08/21 04:22:35;;;;;;;5.33;4.20;;;9.90;99.90;;;10.50;100.00;95288.00;2212411;56;26574;-55
2021/08/21 04:25:21;;;;;;;7.13;4.40;;;10.00;99.90;;;10.59;100.00;95289.00;2435531;55;26927;-56
2021/08/21 04:28:07;;;;;;;4.60;3.93;;;10.00;99.90;;;10.59;100.00;95290.00;2213297;55;26655;-55
2021/08/21 04:30:55;;;;;;;5.07;4.57;;;9.90;99.90;;;10.49;100.00;95292.00;2434219;55;26160;-55
2021/08/21 04:33:41;;;;;;;4.40;4.00;;;9.90;99.90;;;10.43;100.00;95286.00;2194779;56;27149;-55
2021/08/21 04:39:24;;;;;;;4.70;4.27;;;9.90;99.90;;;10.72;100.00;95281.00;2429362;54;34110;-56
2021/08/21 04:42:11;;;;;;;6.10;4.30;;;10.00;99.90;;;10.66;100.00;95287.00;2379681;55;26823;-55
2021/08/21 04:47:54;;;;;;;4.47;4.07;;;10.00;99.90;;;10.64;100.00;95280.00;2509692;53;33290;-55
2021/08/21 04:50:41;;;;;;;5.77;3.87;;;10.00;99.90;;;10.63;100.00;95296.00;2242867;54;26679;-54
2021/08/21 04:53:27;;;;;;;4.37;3.97;;;10.20;99.90;;;10.78;100.00;95299.00;2481613;53;26803;-56
2021/08/21 04:59:10;;;;;;;4.13;3.73;;;10.50;99.90;;;11.27;100.00;95297.00;2453891;54;34087;-56
2021/08/21 05:01:57;;;;;;;4.67;3.57;;;10.50;99.90;;;11.07;100.00;95305.00;2215556;55;26774;-56
2021/08/21 05:04:43;;;;;;;4.50;3.80;;;10.40;99.90;;;11.00;100.00;95301.00;2434466;55;27005;-57
2021/08/21 05:10:26;;;;;;;4.40;4.00;;;10.50;99.90;;;11.33;100.00;95290.00;2434764;54;33816;-55
2021/08/21 05:13:13;;;;;;;5.03;3.37;;;10.70;99.90;;;11.41;100.00;95310.00;2232873;55;26645;-56
2021/08/21 05:15:59;;;;;;;6.90;4.17;;;10.80;99.90;;;11.52;100.00;95306.00;2469898;54;26849;-55
2021/08/21 05:18:49;;;;;;;4.93;3.77;;;10.90;99.90;;;11.60;100.00;95304.00;2240113;55;27168;-55
2021/08/21 05:21:36;;;;;;;4.80;3.97;;;10.90;99.90;;;11.66;100.00;95314.00;2469318;54;26718;-56
2021/08/21 05:24:23;;;;;;;4.70;3.50;;;11.10;99.90;;;11.80;100.00;95310.00;2241573;55;27263;-55
2021/08/21 05:27:10;;;;;;;4.77;3.73;;;11.10;99.90;;;11.93;100.00;95312.00;2242534;55;27335;-56
2021/08/21 05:29:56;;;;;;;5.27;3.97;;;11.30;99.90;;;12.00;100.00;95310.00;2241034;55;26783;-55
2021/08/21 05:32:43;;;;;;;4.03;3.63;;;11.30;99.90;;;11.97;100.00;95311.00;2467965;54;26669;-56
2021/08/21 05:35:29;;;;;;;4.13;3.50;;;11.30;99.90;;;11.98;100.00;95318.00;2241210;55;27289;-56
2021/08/21 05:38:16;;;;;;;4.93;3.47;;;11.40;99.90;;;12.09;100.00;95320.00;2469668;54;26090;-55
2021/08/21 05:41:03;;;;;;;5.33;4.30;;;11.60;99.90;;;12.32;100.00;95313.00;2242111;55;26721;-56
2021/08/21 05:43:50;;;;;;;5.00;4.07;;;11.80;99.90;;;12.53;100.00;95315.00;2241684;55;26132;-56
2021/08/21 05:46:36;;;;;;;4.67;3.80;;;12.00;99.90;;;12.63;100.00;95312.00;2241767;55;26788;-55
2021/08/21 05:49:22;;;;;;;4.73;3.70;;;12.20;99.90;;;12.80;100.00;95320.00;2404109;55;26861;-55
2021/08/21 05:52:09;;;;;;;5.93;4.10;;;12.30;99.90;;;12.93;100.00;95315.00;2409913;55;27292;-56
2021/08/21 05:54:55;;;;;;;5.87;5.18;;;12.40;99.90;;;13.11;100.00;95311.00;2191383;56;26758;-56
2021/08/21 05:57:42;;;;;;;5.50;4.60;;;12.60;99.90;;;13.23;100.00;95312.00;2190880;56;26744;-56
2021/08/21 06:00:30;;;;;;;6.10;4.97;;;12.80;99.90;;;13.49;100.00;95313.00;2190982;56;27016;-56
2021/08/21 06:03:18;;;;;;;7.23;5.30;;;12.90;99.90;;;13.55;100.00;95319.00;2190457;56;26607;-55
2021/08/21 06:06:04;;;;;;;6.32;5.60;;;13.00;99.90;;;13.65;100.00;95323.00;2191059;56;26767;-56
2021/08/21 06:08:51;;;;;;;7.35;5.57;;;13.10;99.90;;;13.81;100.00;95328.00;2190179;56;26652;-56
2021/08/21 06:11:38;;;;;;;6.57;5.40;;;13.30;99.90;;;14.00;100.00;95327.00;2189986;56;27474;-56
2021/08/21 06:14:24;;;;;;;6.00;5.40;;;13.40;99.90;;;14.14;100.00;95328.00;2192111;56;26575;-56
2021/08/21 06:17:10;;;;;;;7.57;5.43;;;13.70;99.90;;;14.36;100.00;95338.00;2190899;56;26731;-56
2021/08/21 06:19:57;;;;;;;8.02;5.12;;;13.80;99.90;;;14.53;100.00;95339.00;2404904;56;26762;-56
2021/08/21 06:22:43;;;;;;;6.70;5.30;;;13.90;99.90;;;14.61;100.00;95328.00;2407034;56;26650;-56
2021/08/21 06:25:30;;;;;;;6.93;5.12;;;14.10;99.90;;;14.79;100.00;95335.00;2189627;56;26671;-56
2021/08/21 06:28:17;;;;;;;6.12;5.25;;;14.30;99.90;;;15.12;100.00;95336.00;2189890;56;26630;-56
2021/08/21 06:31:04;;;;;;;5.62;5.10;;;14.90;99.90;;;16.36;100.00;95336.00;2189621;56;26765;-56
2021/08/21 06:33:50;;;;;;;4.95;4.43;;;16.50;99.90;;;19.18;100.00;95318.00;2188397;56;27020;-56
2021/08/21 06:36:37;;;;;;;4.90;4.20;;;18.50;99.90;;;21.60;100.00;95313.00;2188771;56;26149;-56
2021/08/21 06:42:19;;;;;;;4.12;3.60;;;20.70;99.90;;;25.80;100.00;95311.00;2455126;54;34148;-56
2021/08/21 06:48:02;;;;;;;4.80;3.87;;;22.80;99.90;;;27.52;100.00;95313.00;2416774;55;33794;-57
2021/08/21 06:50:48;;;;;;;4.32;3.92;;;24.90;99.90;;;28.15;100.00;95315.00;2186116;56;27113;-56
2021/08/21 06:53:35;;;;;;;3.90;3.60;;;25.40;99.90;;;29.18;100.00;95306.00;2406823;55;25222;-56
2021/08/21 06:56:21;;;;;;;4.20;3.80;;;26.20;99.90;;;29.23;100.00;95309.00;2187963;56;26681;-56
2021/08/21 06:59:08;;;;;;;4.22;3.83;;;26.60;99.90;;;29.28;100.00;95308.00;2401790;55;26206;-57
2021/08/21 07:01:54;;;;;;;4.03;3.70;;;27.00;99.90;;;30.04;95.21;95308.00;2204978;55;26679;-57
2021/08/21 07:04:41;;;;;;;4.37;3.70;;;27.10;99.90;;;30.75;93.00;95302.00;2431934;55;27172;-57
2021/08/21 07:07:29;;;;;;;4.15;3.75;;;27.60;99.90;;;30.58;86.55;95313.00;2210313;56;25086;-55
2021/08/21 07:10:16;;;;;;;4.35;3.95;;;27.60;99.90;;;31.15;93.13;95306.00;2431700;55;26358;-55
2021/08/21 07:15:59;;;;;;;4.10;3.80;;;28.40;99.90;;;32.19;80.76;95299.00;2381808;55;34007;-54
2021/08/21 07:18:46;;;;;;;4.37;3.97;;;28.60;99.90;;;31.92;80.54;95305.00;2147486;56;26239;-54
2021/08/21 07:21:33;;;;;;;5.62;4.57;;;28.50;99.90;;;30.98;81.07;95304.00;2371429;56;26735;-55
2021/08/21 07:24:19;;;;;;;4.93;4.40;;;28.00;99.90;;;30.30;80.79;95306.00;2160028;57;25690;-55
2021/08/21 07:27:06;;;;;;;5.05;4.25;;;27.40;99.90;;;28.99;91.93;95307.00;2372595;56;25109;-55
2021/08/21 07:29:52;;;;;;;4.75;4.07;;;27.30;99.90;;;29.68;97.48;95302.00;2190600;55;25542;-54
2021/08/21 07:32:39;;;;;;;4.50;4.10;;;28.10;99.90;;;31.26;82.34;95298.00;2198512;56;25646;-55
2021/08/21 07:35:25;;;;;;;4.35;4.03;;;28.30;99.90;;;30.92;83.77;95311.00;2430747;55;27236;-54
2021/08/21 07:38:11;;;;;;;5.18;4.72;;;28.40;99.90;;;31.53;84.69;95313.00;2208884;56;26677;-55
2021/08/21 07:40:58;;;;;;;4.80;4.40;;;28.90;99.90;;;31.80;74.21;95310.00;2431345;55;25222;-56
2021/08/21 07:43:45;;;;;;;5.50;4.65;;;28.60;99.90;;;31.14;85.36;95307.00;2208187;56;25724;-54
2021/08/21 07:46:31;;;;;;;4.60;4.18;;;28.70;99.90;;;31.06;83.06;95303.00;2414683;55;26912;-55
2021/08/21 07:49:18;;;;;;;4.50;4.10;;;29.10;99.90;;;31.48;83.74;95309.00;2188867;56;26788;-55
2021/08/21 07:52:05;;;;;;;4.40;3.90;;;29.00;99.90;;;31.16;82.20;95306.00;2401588;56;25720;-55
2021/08/21 07:54:53;;;;;;;4.78;4.22;;;29.00;99.90;;;31.54;87.73;95299.00;2183301;57;26700;-55
2021/08/21 07:57:40;;;;;;;5.87;4.03;;;29.50;99.90;;;31.95;79.78;95299.00;2183878;57;25873;-54
2021/08/21 08:00:26;;;;;;;4.90;4.50;;;29.90;99.90;;;32.21;71.12;95311.00;2401346;56;25195;-55
2021/08/21 08:03:14;;;;;;;4.57;4.18;;;29.70;99.90;;;32.33;71.00;95314.00;2183592;56;25564;-54
2021/08/21 08:06:01;;;;;;;4.78;4.37;;;30.20;99.90;;;32.52;70.35;95306.00;2401481;56;25814;-55
2021/08/21 08:08:47;;;;;;;4.40;4.00;;;30.50;99.90;;;32.93;67.82;95311.00;2184132;56;27489;-55
2021/08/21 08:11:34;;;;;;;5.07;4.57;;;30.30;99.90;;;32.85;72.62;95307.00;2401472;55;25600;-54
2021/08/21 08:14:20;;;;;;;5.07;4.35;;;30.20;99.90;;;32.26;66.22;95313.00;2184011;57;25775;-55
2021/08/21 08:17:07;;;;;;;4.25;3.85;;;30.70;99.90;;;33.50;69.61;95306.00;2401588;56;25100;-55
2021/08/21 08:22:51;;;;;;;6.45;4.30;;;32.30;99.90;;;36.07;59.70;95307.00;2440756;54;33267;-55
2021/08/21 08:25:38;;;;;;;4.37;3.97;;;32.80;99.90;;;35.89;54.24;95314.00;2189522;55;26144;-54
2021/08/21 08:28:24;;;;;;;4.20;3.85;;;32.40;99.90;;;35.83;51.66;95310.00;2408137;55;25929;-55
2021/08/21 08:34:11;;;;;;;4.87;4.37;;;32.30;99.90;;;35.07;59.44;95306.00;2438571;53;32811;-55
2021/08/21 08:36:58;;;;;;;4.18;3.80;;;31.90;99.90;;;35.21;58.86;95312.00;2209657;56;25570;-55
2021/08/21 08:39:45;;;;;;;4.95;4.00;;;32.70;99.90;;;36.29;53.26;95309.00;2433665;53;25689;-55
2021/08/21 08:42:32;;;;;;;5.53;4.22;;;32.60;99.90;;;36.36;47.04;95312.00;2242395;53;25660;-55
2021/08/21 08:45:19;;;;;;;4.12;3.83;;;31.90;99.90;;;34.35;51.37;95311.00;2495857;53;25876;-55
2021/08/21 08:48:07;;;;;;;4.00;3.67;;;31.80;99.90;;;34.73;60.15;95313.00;2266958;53;25722;-54
2021/08/21 08:50:56;;;;;;;4.93;4.53;;;32.00;99.90;;;35.19;58.17;95314.00;2527544;53;25832;-55
2021/08/21 08:53:43;;;;;;;4.55;4.15;;;32.40;99.90;;;35.82;59.69;95316.00;2287417;53;26162;-55
2021/08/21 08:56:29;;;;;;;4.80;4.10;;;32.20;99.90;;;35.59;55.90;95321.00;2527434;52;25231;-55
2021/08/21 08:59:16;;;;;;;4.53;3.60;;;32.20;99.90;;;35.41;56.69;95315.00;2287405;53;25732;-55
2021/08/21 09:02:03;;;;;;;4.35;3.95;;;32.10;99.90;;;35.06;62.50;95309.00;2528025;52;26206;-54
2021/08/21 09:05:02;;;;;;;5.80;4.40;;;32.40;99.90;;;35.46;56.35;95305.00;2528047;52;25839;-55
2021/08/21 09:07:52;;;;;;;4.50;4.10;;;32.10;99.90;;;34.57;53.22;95302.00;2287587;53;25091;-55
2021/08/21 09:10:38;;;;;;;5.22;4.37;;;31.30;99.90;;;33.80;59.70;95303.00;2287595;53;25695;-53
2021/08/21 09:13:26;;;;;;;4.78;4.00;;;30.90;99.90;;;33.80;56.48;95308.00;2288361;53;25662;-55
2021/08/21 09:16:23;;;;;;;4.72;4.30;;;30.60;99.90;;;32.72;56.88;95310.00;2287000;53;25855;-57
2021/08/21 09:22:10;;;;;;;4.20;3.90;;;31.20;99.90;;;33.51;59.06;95303.00;2486801;52;33639;-54
2021/08/21 09:24:56;;;;;;;4.70;4.25;;;31.00;99.90;;;33.23;66.90;95305.00;2262645;53;25610;-55
2021/08/21 09:27:45;;;;;;;4.53;4.12;;;31.60;99.90;;;33.85;60.11;95310.00;2502551;53;25140;-57
2021/08/21 09:30:32;;;;;;;4.25;3.95;;;32.10;99.90;;;34.95;60.07;95306.00;2293255;53;25764;-57
2021/08/21 09:33:19;;;;;;;4.45;4.00;;;33.10;99.90;;;36.32;52.59;95309.00;2535110;53;25675;-55
2021/08/21 09:36:10;;;;;;;4.65;3.97;;;33.30;99.90;;;36.39;48.17;95315.00;2294005;53;25784;-55
2021/08/21 09:38:57;;;;;;;4.53;4.12;;;33.00;99.90;;;34.92;50.95;95296.00;2535535;53;25899;-55
2021/08/21 09:41:57;;;;;;;4.47;4.07;;;32.90;99.90;;;36.13;52.84;95308.00;2294862;54;25380;-53
2021/08/21 09:47:42;;;;;;;4.85;4.10;;;34.40;99.90;;;37.01;47.19;95303.00;2460377;53;32954;-54
2021/08/21 09:50:33;;;;;;;4.47;4.05;;;34.60;99.90;;;36.75;46.32;95300.00;2256052;55;26523;-55
2021/08/21 09:53:19;;;;;;;4.72;4.00;;;34.10;99.90;;;35.25;50.18;95283.00;2498143;54;26135;-55
2021/08/21 09:56:11;;;;;;;5.57;4.40;;;33.00;99.90;;;34.06;51.55;95293.00;2499362;53;25668;-55
2021/08/21 09:58:58;;;;;;;6.90;4.35;;;32.60;99.90;;;33.15;51.01;95297.00;2265292;55;26324;-54
2021/08/21 10:01:45;;;;;;;4.65;4.25;;;32.00;99.90;;;32.59;52.40;95298.00;2239342;55;25785;-54
2021/08/21 10:04:32;;;;;;;4.90;4.37;;;32.10;99.90;;;32.90;58.07;95298.00;2237351;55;25856;-54
2021/08/21 10:07:20;;;;;;;4.57;4.18;;;32.10;99.90;;;32.97;56.27;95288.00;2466119;54;25157;-55
2021/08/21 10:10:10;;;;;;;4.53;4.00;;;31.70;99.90;;;31.95;55.29;95288.00;2238127;54;25980;-54
2021/08/21 10:13:06;;;;;;;6.78;4.60;;;31.20;99.90;;;32.38;61.84;95292.00;2465914;54;25080;-54
2021/08/21 10:15:55;;;;;;;4.90;4.50;;;31.70;99.90;;;33.08;51.48;95281.00;2235863;54;26269;-55
2021/08/21 10:18:42;;;;;;;4.40;4.07;;;31.80;99.90;;;33.15;64.64;95279.00;2236991;54;25945;-55
2021/08/21 10:21:28;;;;;;;4.62;4.22;;;31.80;99.90;;;33.27;58.91;95284.00;2468035;54;26164;-55
2021/08/21 10:24:24;;;;;;;5.57;4.20;;;31.60;99.90;;;32.89;72.69;95277.00;2465774;54;26324;-55
2021/08/21 10:30:17;;;;;;;4.82;4.43;;;31.50;99.90;;;32.44;64.99;95271.00;2363060;55;32835;-54
2021/08/21 10:33:04;;;;;;;4.93;4.47;;;31.50;99.90;;;33.05;60.78;95271.00;2185282;55;25774;-54
2021/08/21 10:35:54;;;;;;;4.72;4.32;;;31.20;99.90;;;32.01;68.53;95271.00;2189184;55;25101;-54
2021/08/21 10:38:40;;;;;;;5.62;4.50;;;31.10;99.90;;;31.89;68.84;95267.00;2408532;55;25145;-55
2021/08/21 10:41:36;;;;;;;4.40;4.00;;;31.30;99.90;;;33.06;52.33;95270.00;2421943;55;26902;-55
2021/08/21 10:44:46;;;;;;;5.15;4.55;;;31.30;99.90;;;33.87;50.55;95264.00;2184621;58;25149;-54
2021/08/21 10:47:40;;;;;;;5.18;4.00;;;31.90;99.90;;;34.63;50.46;95271.00;2203310;56;25642;-54
2021/08/21 10:50:34;;;;;;;7.40;4.50;;;32.30;99.90;;;34.32;51.59;95269.00;2208839;56;26260;-54
2021/08/21 10:56:34;;;;;;;5.53;4.47;;;32.00;99.90;;;35.02;49.91;95270.00;2478434;53;32615;-57
2021/08/21 10:59:41;;;;;;;4.95;4.45;;;32.00;99.90;;;35.19;46.17;95271.00;2433585;55;25757;-55
2021/08/21 11:02:43;;;;;;;4.20;3.80;;;32.60;99.90;;;34.04;46.52;95267.00;2431978;55;27202;-54
2021/08/21 11:05:52;;;;;;;4.40;4.00;;;32.10;99.90;;;33.72;54.63;95271.00;2429201;55;26699;-54
2021/08/21 11:09:07;;;;;;;4.60;4.10;;;32.10;99.90;;;33.22;49.29;95268.00;2432009;55;27126;-55
2021/08/21 11:11:54;;;;;;;4.80;4.25;;;31.90;99.90;;;33.12;66.62;95273.00;2186362;56;26100;-54
2021/08/21 11:14:42;;;;;;;4.72;4.30;;;32.20;99.90;;;32.68;63.82;95279.00;2187539;55;27135;-54
2021/08/21 11:20:34;;;;;;;4.65;4.20;;;31.30;99.90;;;31.30;58.90;95263.00;2386717;55;34140;-56
2021/08/21 11:23:21;;;;;;;4.37;3.97;;;30.90;99.90;;;30.64;60.64;95268.00;2148879;57;26991;-56
2021/08/21 11:26:23;;;;;;;4.82;4.40;;;30.70;99.90;;;30.37;70.73;95261.00;2356389;56;26647;-56
2021/08/21 11:29:11;;;;;;;4.50;4.10;;;30.70;99.90;;;30.58;83.25;95256.00;2378393;57;26891;-57
2021/08/21 11:31:59;;;;;;;4.95;4.18;;;30.50;99.90;;;30.27;68.42;95259.00;2164394;56;25625;-56
2021/08/21 11:34:46;;;;;;;5.05;4.18;;;29.80;99.90;;;29.59;75.16;95260.00;2378904;57;26145;-56
2021/08/21 11:37:33;;;;;;;6.37;4.25;;;29.80;99.90;;;30.12;65.45;95261.00;2164548;56;25114;-56
2021/08/21 11:40:22;;;;;;;4.85;4.30;;;29.40;99.90;;;29.40;68.79;95264.00;2378388;57;26673;-57
2021/08/21 11:43:11;;;;;;;4.85;4.40;;;28.70;99.90;;;28.41;68.46;95266.00;2164874;56;25728;-56
2021/08/21 11:46:00;;;;;;;4.85;4.28;;;28.40;99.90;;;28.69;90.40;95262.00;2379189;56;26633;-56
2021/08/21 11:48:46;;;;;;;4.75;3.83;;;28.40;99.90;;;28.41;71.50;95258.00;2171149;56;27258;-56
2021/08/21 11:51:37;;;;;;;4.80;4.40;;;28.00;99.90;;;28.17;72.90;95253.00;2376774;56;25619;-56
2021/08/21 11:54:23;;;;;;;4.82;4.30;;;28.50;99.90;;;28.89;77.61;95257.00;2163064;56;27735;-56
2021/08/21 11:57:10;;;;;;;4.32;3.92;;;28.80;99.90;;;29.15;77.62;95261.00;2406935;55;25176;-56
2021/08/21 12:00:09;;;;;;;4.28;3.85;;;29.00;99.90;;;29.48;78.40;95259.00;2190187;56;27513;-56
2021/08/21 12:02:59;;;;;;;4.87;4.18;;;29.00;99.90;;;29.01;80.32;95260.00;2191402;56;26768;-56
2021/08/21 12:05:46;;;;;;;5.07;4.22;;;28.90;99.90;;;29.08;88.95;95257.00;2409301;56;27305;-56
2021/08/21 12:08:32;;;;;;;4.95;4.18;;;28.40;99.90;;;28.50;75.10;95259.00;2191006;56;25689;-56
2021/08/21 12:11:19;;;;;;;7.28;4.50;;;28.40;99.90;;;28.61;88.57;95253.00;2190152;55;27050;-56
2021/08/21 12:14:05;;;;;;;5.37;4.28;;;28.30;99.90;;;28.30;75.15;95252.00;2410368;55;26749;-56
2021/08/21 12:16:56;;;;;;;4.95;4.45;;;28.60;99.90;;;28.85;85.46;95253.00;2190149;55;26626;-57
2021/08/21 12:19:43;;;;;;;4.75;4.32;;;28.70;99.90;;;29.13;95.92;95254.00;2408564;55;27185;-57
2021/08/21 12:22:30;;;;;;;5.40;4.47;;;29.00;99.90;;;29.11;79.66;95246.00;2190205;55;25201;-56
2021/08/21 12:25:16;;;;;;;5.12;4.37;;;28.90;99.90;;;29.21;84.02;95249.00;2408847;55;26708;-57
2021/08/21 12:28:12;;;;;;;5.30;4.57;;;29.30;99.90;;;29.79;91.92;95252.00;2189874;56;26704;-56
2021/08/21 12:31:02;;;;;;;4.60;4.20;;;29.60;99.90;;;30.10;89.38;95250.00;2190083;56;26677;-57
2021/08/21 12:33:57;;;;;;;5.07;4.30;;;29.50;99.90;;;29.71;81.64;95250.00;2408085;56;25753;-56
2021/08/21 12:39:42;;;;;;;5.03;4.10;;;28.50;99.90;;;28.56;87.15;95236.00;2485882;52;34719;-56
2021/08/21 12:42:30;;;;;;;5.03;4.53;;;28.40;99.90;;;28.47;93.11;95235.00;2237618;55;27361;-56
2021/08/21 12:45:25;;;;;;;4.78;4.32;;;28.60;99.90;;;28.80;85.27;95240.00;2460666;54;26838;-55
2021/08/21 12:48:11;;;;;;;4.82;4.15;;;28.40;99.90;;;28.77;81.00;95241.00;2466535;54;26146;-56
2021/08/21 12:50:58;;;;;;;5.15;4.65;;;28.70;99.90;;;29.29;92.22;95234.00;2248054;55;26696;-57
2021/08/21 12:53:45;;;;;;;5.57;4.65;;;28.50;99.90;;;28.64;84.69;95235.00;2242307;55;26578;-57